createdAt,value
2024-03-05T00:02:15.113Z,96718.72
2024-03-05T00:04:42.001Z,96725.91
2024-03-05T00:07:08.736Z,96718.72
2024-03-05T00:09:36.767Z,96732.38
2024-03-05T00:12:04.018Z,96733.13
2024-03-05T00:14:30.669Z,96724.41
2024-03-05T00:16:57.403Z,96723.66
2024-03-05T00:19:24.162Z,96736.53
2024-03-05T00:21:50.994Z,96732.38
2024-03-05T00:24:17.665Z,96733.47
2024-03-05T00:26:45.679Z,96733.13
2024-03-05T00:29:12.287Z,96740.69
2024-03-05T00:31:38.921Z,96732.16
2024-03-05T00:34:05.570Z,96737.63
2024-03-05T00:36:32.271Z,96738.59
2024-03-05T00:38:58.935Z,96738.97
2024-03-05T00:41:25.590Z,96743.75
2024-03-05T00:43:53.642Z,96745.06
2024-03-05T00:46:20.424Z,96742.00
2024-03-05T00:48:47.155Z,96742.75
2024-03-05T00:51:13.821Z,96744.06
2024-03-05T00:53:40.489Z,96741.22
2024-03-05T00:56:07.129Z,96744.84
2024-03-05T00:58:33.773Z,96752.59
2024-03-05T01:01:01.746Z,96756.00
2024-03-05T01:03:28.398Z,96756.94
2024-03-05T01:05:55.079Z,96750.53
2024-03-05T01:08:21.773Z,96759.25
2024-03-05T01:10:48.406Z,96760.56
2024-03-05T01:13:15.091Z,96759.03
2024-03-05T01:15:41.801Z,96767.56
2024-03-05T01:18:09.856Z,96763.00
2024-03-05T01:20:36.556Z,96763.00
2024-03-05T01:23:03.317Z,96771.94
2024-03-05T01:25:29.986Z,96764.72
2024-03-05T01:27:56.599Z,96767.56
2024-03-05T01:30:23.195Z,96763.19
2024-03-05T01:32:49.926Z,96768.66
2024-03-05T01:35:17.934Z,96765.47
2024-03-05T01:37:44.748Z,96777.41
2024-03-05T01:40:11.910Z,96780.25
2024-03-05T01:42:38.938Z,96777.81
2024-03-05T01:45:06.699Z,96770.94
2024-03-05T01:47:34.161Z,96775.09
2024-03-05T01:50:03.611Z,96780.44
2024-03-05T01:52:31.961Z,96792.34
2024-03-05T01:55:05.042Z,96788.75
2024-03-05T01:57:31.992Z,96793.88
2024-03-05T01:59:59.006Z,96795.53
2024-03-05T02:02:25.936Z,96795.97
2024-03-05T02:04:53.725Z,96793.13
2024-03-05T02:07:22.431Z,96797.28
2024-03-05T02:09:51.249Z,96799.03
2024-03-05T02:12:17.924Z,96803.50
2024-03-05T02:14:44.787Z,96804.28
2024-03-05T02:17:12.166Z,96798.59
2024-03-05T02:19:46.518Z,96806.34
2024-03-05T02:22:14.532Z,96806.91
2024-03-05T02:24:41.244Z,96802.75
2024-03-05T02:27:11.906Z,96812.34
2024-03-05T02:29:42.006Z,96809.75
2024-03-05T02:32:11.724Z,96811.28
2024-03-05T02:34:38.413Z,96814.13
2024-03-05T02:37:05.180Z,96810.16
2024-03-05T02:39:33.106Z,96809.19
2024-03-05T02:41:59.745Z,96818.69
2024-03-05T02:44:26.341Z,96812.81
2024-03-05T02:46:53.019Z,96819.00
2024-03-05T02:49:19.756Z,96806.34
2024-03-05T02:51:46.437Z,96815.06
2024-03-05T02:54:13.215Z,96819.44
2024-03-05T02:56:41.175Z,96817.16
2024-03-05T02:59:07.848Z,96823.81
2024-03-05T03:01:34.613Z,96819.00
2024-03-05T03:04:01.271Z,96823.06
2024-03-05T03:06:27.898Z,96817.16
2024-03-05T03:08:54.549Z,96821.84
2024-03-05T03:11:21.268Z,96821.31
2024-03-05T03:13:49.356Z,96826.66
2024-03-05T03:16:16.114Z,96830.06
2024-03-05T03:18:42.800Z,96833.44
2024-03-05T03:21:09.461Z,96828.53
2024-03-05T03:23:36.071Z,96836.06
2024-03-05T03:26:02.828Z,96827.00
2024-03-05T03:28:29.534Z,96828.09
2024-03-05T03:30:57.542Z,96825.78
2024-03-05T03:33:24.240Z,96831.16
2024-03-05T03:35:50.939Z,96837.59
2024-03-05T03:38:17.582Z,96831.16
2024-03-05T03:40:44.361Z,96842.50
2024-03-05T03:43:11.086Z,96846.88
2024-03-05T03:45:37.727Z,96853.09
2024-03-05T03:48:06.980Z,96851.03
2024-03-05T03:50:34.134Z,96853.88
2024-03-05T03:53:00.821Z,96856.94
2024-03-05T03:55:27.512Z,96856.94
2024-03-05T03:57:55.047Z,96851.78
2024-03-05T04:00:22.105Z,96858.56
2024-03-05T04:02:48.821Z,96866.31
2024-03-05T04:05:17.201Z,96869.38
2024-03-05T04:07:43.998Z,96865.03
2024-03-05T04:10:11.025Z,96870.47
2024-03-05T04:12:37.697Z,96868.59
2024-03-05T04:15:05.380Z,96865.22
2024-03-05T04:17:32.018Z,96870.91
2024-03-05T04:19:58.665Z,96875.06
2024-03-05T04:22:26.731Z,96868.28
2024-03-05T04:24:53.447Z,96871.66
2024-03-05T04:27:20.579Z,96864.47
2024-03-05T04:29:47.234Z,96863.13
2024-03-05T04:32:14.030Z,96868.06
2024-03-05T04:34:41.075Z,96872.44
2024-03-05T04:37:07.728Z,96869.59
2024-03-05T04:39:35.735Z,96865.22
2024-03-05T04:42:02.470Z,96870.13
2024-03-05T04:44:29.220Z,96862.94
2024-03-05T04:46:55.989Z,96861.09
2024-03-05T04:49:22.749Z,96866.56
2024-03-05T04:51:49.385Z,96870.91
2024-03-05T04:54:16.614Z,96873.53
2024-03-05T04:56:44.661Z,96868.06
2024-03-05T04:59:11.306Z,96874.28
2024-03-05T05:01:37.977Z,96872.22
2024-03-05T05:04:04.949Z,96868.91
2024-03-05T05:06:31.620Z,96874.28
2024-03-05T05:08:58.270Z,96876.59
2024-03-05T05:11:24.970Z,96869.38
2024-03-05T05:13:53.042Z,96875.06
2024-03-05T05:16:19.724Z,96868.06
2024-03-05T05:18:46.348Z,96867.38
2024-03-05T05:21:13.055Z,96875.06
2024-03-05T05:23:39.700Z,96873.97
2024-03-05T05:26:06.459Z,96881.94
2024-03-05T05:28:33.145Z,96875.81
2024-03-05T05:31:01.222Z,96872.44
2024-03-05T05:33:28.922Z,96879.44
2024-03-05T05:35:55.539Z,96882.28
2024-03-05T05:38:22.129Z,96886.06
2024-03-05T05:40:48.743Z,96879.44
2024-03-05T05:43:15.439Z,96883.03
2024-03-05T05:45:42.138Z,96880.75
2024-03-05T05:48:10.202Z,96878.66
2024-03-05T05:50:36.917Z,96887.75
2024-03-05T05:53:03.923Z,96890.59
2024-03-05T05:55:30.624Z,96885.13
2024-03-05T05:57:57.353Z,96890.00
2024-03-05T06:00:25.987Z,96895.47
2024-03-05T06:02:53.577Z,96900.06
2024-03-05T06:05:24.692Z,96897.22
2024-03-05T06:07:51.989Z,96890.78
2024-03-05T06:10:19.004Z,96897.78
2024-03-05T06:12:45.672Z,96892.09
2024-03-05T06:15:12.978Z,96906.06
2024-03-05T06:17:40.554Z,96896.03
2024-03-05T06:20:08.450Z,96898.84
2024-03-05T06:22:36.517Z,96904.53
2024-03-05T06:25:03.173Z,96903.22
2024-03-05T06:27:29.811Z,96914.84
2024-03-05T06:29:56.437Z,96917.66
2024-03-05T06:32:23.031Z,96920.50
2024-03-05T06:34:49.722Z,96927.25
2024-03-05T06:37:16.432Z,96927.50
2024-03-05T06:39:44.441Z,96928.78
2024-03-05T06:42:11.071Z,96938.63
2024-03-05T06:44:37.785Z,96932.16
2024-03-05T06:47:05.356Z,96938.38
2024-03-05T06:49:32.052Z,96946.13
2024-03-05T06:51:58.689Z,96936.78
2024-03-05T06:54:25.318Z,96940.94
2024-03-05T06:56:53.284Z,96937.06
2024-03-05T06:59:19.963Z,96935.78
2024-03-05T07:01:46.675Z,96945.38
2024-03-05T07:04:13.522Z,96944.53
2024-03-05T07:06:40.167Z,96942.75
2024-03-05T07:09:06.924Z,96951.97
2024-03-05T07:11:34.272Z,96944.31
2024-03-05T07:14:02.402Z,96949.50
2024-03-05T07:16:29.077Z,96955.34
2024-03-05T07:18:55.881Z,96956.19
2024-03-05T07:21:24.942Z,96961.34
2024-03-05T07:23:53.643Z,96963.41
2024-03-05T07:26:21.605Z,96963.94
2024-03-05T07:28:48.966Z,96964.19
2024-03-05T07:31:18.747Z,96961.34
2024-03-05T07:33:49.030Z,96968.53
2024-03-05T07:36:18.385Z,96964.72
2024-03-05T07:38:44.976Z,96964.44
2024-03-05T07:41:18.014Z,96967.25
2024-03-05T07:43:52.951Z,96965.72
2024-03-05T07:46:21.464Z,96969.31
2024-03-05T07:48:48.136Z,96964.63
2024-03-05T07:51:21.592Z,96970.38
2024-03-05T07:53:51.770Z,96969.06
2024-03-05T07:56:18.454Z,96972.44
2024-03-05T07:58:45.205Z,96968.31
2024-03-05T08:01:11.966Z,96968.88
2024-03-05T08:03:39.938Z,96971.13
2024-03-05T08:06:06.676Z,96973.97
2024-03-05T08:08:33.315Z,96975.28
2024-03-05T08:11:00.027Z,96973.31
2024-03-05T08:13:26.724Z,96975.28
2024-03-05T08:15:54.862Z,96973.75
2024-03-05T08:18:21.470Z,96977.06
2024-03-05T08:20:49.708Z,96980.22
2024-03-05T08:23:16.356Z,96985.59
2024-03-05T08:25:46.084Z,96979.38
2024-03-05T08:28:13.846Z,96979.66
2024-03-05T08:30:40.539Z,96980.22
2024-03-05T08:33:07.161Z,96981.22
2024-03-05T08:35:33.857Z,96986.91
2024-03-05T08:38:02.390Z,96987.22
2024-03-05T08:40:29.638Z,96985.13
2024-03-05T08:42:56.344Z,96983.81
2024-03-05T08:45:23.379Z,96985.91
2024-03-05T08:47:51.302Z,96984.06
2024-03-05T08:50:18.815Z,96980.22
2024-03-05T08:52:46.113Z,96981.22
2024-03-05T08:55:14.524Z,96981.75
2024-03-05T08:57:42.223Z,96978.13
2024-03-05T09:00:17.411Z,96980.22
2024-03-05T09:02:54.361Z,96979.16
2024-03-05T09:05:21.182Z,96980.97
2024-03-05T09:07:47.964Z,96982.50
2024-03-05T09:10:16.151Z,96980.22
2024-03-05T09:12:42.883Z,96987.44
2024-03-05T09:15:10.151Z,96989.28
2024-03-05T09:17:37.095Z,96980.22
2024-03-05T09:20:05.195Z,96978.91
2024-03-05T09:22:31.832Z,96979.38
2024-03-05T09:24:58.518Z,96981.22
2024-03-05T09:27:26.467Z,96980.97
2024-03-05T09:29:53.055Z,96978.91
2024-03-05T09:32:19.685Z,96977.91
2024-03-05T09:34:46.361Z,96976.38
2024-03-05T09:37:13.094Z,96974.53
2024-03-05T09:39:39.763Z,96974.75
2024-03-05T09:42:06.537Z,96972.44
2024-03-05T09:44:34.796Z,96970.38
2024-03-05T09:47:01.594Z,96973.22
2024-03-05T09:49:29.836Z,96973.53
2024-03-05T09:51:56.845Z,96970.94
2024-03-05T09:54:23.592Z,96974.53
2024-03-05T09:56:54.293Z,96980.00
2024-03-05T09:59:20.941Z,96970.72
2024-03-05T10:01:50.596Z,96972.22
2024-03-05T10:04:18.051Z,96978.38
2024-03-05T10:06:46.134Z,96973.22
2024-03-05T10:09:12.866Z,96970.19
2024-03-05T10:11:39.734Z,96972.00
2024-03-05T10:14:06.542Z,96966.78
2024-03-05T10:16:33.257Z,96973.22
2024-03-05T10:19:11.999Z,96966.56
2024-03-05T10:21:38.675Z,96962.41
2024-03-05T10:24:05.823Z,96957.28
2024-03-05T10:26:33.460Z,96964.50
2024-03-05T10:29:01.866Z,96962.75
2024-03-05T10:31:30.174Z,96952.91
2024-03-05T10:33:57.319Z,96950.81
2024-03-05T10:36:30.493Z,96941.22
2024-03-05T10:38:57.479Z,96949.97
2024-03-05T10:41:32.061Z,96957.50
2024-03-05T10:44:07.591Z,96961.09
2024-03-05T10:46:36.267Z,96959.78
2024-03-05T10:49:05.027Z,96955.41
2024-03-05T10:51:37.637Z,96953.88
2024-03-05T10:54:05.009Z,96949.50
2024-03-05T10:56:37.367Z,96942.00
2024-03-05T10:59:10.109Z,96956.94
2024-03-05T11:01:38.664Z,96948.41
2024-03-05T11:04:12.241Z,96939.41
2024-03-05T11:06:40.748Z,96941.22
2024-03-05T11:09:08.058Z,96942.22
2024-03-05T11:11:36.069Z,96945.06
2024-03-05T11:14:04.922Z,96946.88
2024-03-05T11:16:34.978Z,96941.22
2024-03-05T11:19:04.364Z,96945.38
2024-03-05T11:21:31.007Z,96946.88
2024-03-05T11:23:59.424Z,96946.88
2024-03-05T11:26:28.587Z,96936.84
2024-03-05T11:29:04.723Z,96945.38
2024-03-05T11:31:31.501Z,96946.34
2024-03-05T11:34:12.330Z,96940.69
2024-03-05T11:36:39.769Z,96940.47
2024-03-05T11:39:09.770Z,96935.00
2024-03-05T11:41:38.896Z,96935.53
2024-03-05T11:44:06.336Z,96935.78
2024-03-05T11:46:44.267Z,96934.47
2024-03-05T11:49:11.858Z,96931.63
2024-03-05T11:51:40.094Z,96928.03
2024-03-05T11:54:08.642Z,96932.94
2024-03-05T11:56:35.543Z,96927.25
2024-03-05T11:59:02.286Z,96937.06
2024-03-05T12:01:29.119Z,96927.50
2024-03-05T12:04:04.468Z,96915.44
2024-03-05T12:06:31.641Z,96916.97
2024-03-05T12:09:09.695Z,96915.13
2024-03-05T12:11:36.401Z,96912.28
2024-03-05T12:14:07.999Z,96917.44
2024-03-05T12:16:34.996Z,96917.19
2024-03-05T12:19:01.919Z,96907.38
2024-03-05T12:21:30.457Z,96911.50
2024-03-05T12:23:58.211Z,96914.59
2024-03-05T12:26:26.539Z,96912.28
2024-03-05T12:28:53.694Z,96909.91
2024-03-05T12:31:20.447Z,96903.47
2024-03-05T12:33:47.167Z,96903.47
2024-03-05T12:36:13.942Z,96893.63
2024-03-05T12:38:40.658Z,96889.28
2024-03-05T12:41:07.349Z,96888.78
2024-03-05T12:43:35.479Z,96881.81
2024-03-05T12:46:02.494Z,96885.44
2024-03-05T12:48:29.266Z,96890.34
2024-03-05T12:50:55.934Z,96891.63
2024-03-05T12:53:22.613Z,96882.88
2024-03-05T12:55:59.619Z,96892.41
2024-03-05T12:58:26.326Z,96879.50
2024-03-05T13:00:54.369Z,96879.50
2024-03-05T13:03:21.188Z,96870.22
2024-03-05T13:05:47.801Z,96869.69
2024-03-05T13:08:14.490Z,96868.59
2024-03-05T13:10:41.242Z,96866.56
2024-03-05T13:13:07.862Z,96861.41
2024-03-05T13:15:34.449Z,96866.06
2024-03-05T13:18:02.488Z,96867.38
2024-03-05T13:20:29.146Z,96870.22
2024-03-05T13:22:55.845Z,96868.41
2024-03-05T13:25:27.170Z,96860.63
2024-03-05T13:27:53.849Z,96861.69
2024-03-05T13:30:21.166Z,96860.38
2024-03-05T13:32:49.258Z,96847.97
2024-03-05T13:35:18.947Z,96854.41
2024-03-05T13:37:46.496Z,96849.25
2024-03-05T13:40:13.863Z,96852.88
2024-03-05T13:42:40.699Z,96852.09
2024-03-05T13:45:08.442Z,96846.44
2024-03-05T13:47:35.130Z,96847.75
2024-03-05T13:50:01.960Z,96839.47
2024-03-05T13:52:30.061Z,96835.06
2024-03-05T13:54:56.695Z,96834.06
2024-03-05T13:57:23.328Z,96830.69
2024-03-05T13:59:49.944Z,96834.81
2024-03-05T14:02:16.609Z,96835.59
2024-03-05T14:04:43.439Z,96840.50
2024-03-05T14:07:10.082Z,96836.91
2024-03-05T14:09:38.058Z,96827.41
2024-03-05T14:12:05.370Z,96836.56
2024-03-05T14:14:32.016Z,96834.16
2024-03-05T14:16:58.662Z,96834.38
2024-03-05T14:19:25.323Z,96843.75
2024-03-05T14:21:51.967Z,96833.16
2024-03-05T14:24:18.679Z,96838.63
2024-03-05T14:26:46.724Z,96839.50
2024-03-05T14:29:13.391Z,96838.09
2024-03-05T14:31:40.113Z,96834.69
2024-03-05T14:34:06.814Z,96840.16
2024-03-05T14:36:33.485Z,96839.22
2024-03-05T14:39:00.243Z,96844.88
2024-03-05T14:41:26.868Z,96839.22
2024-03-05T14:43:54.890Z,96844.13
2024-03-05T14:46:21.744Z,96851.66
2024-03-05T14:48:48.378Z,96842.94
2024-03-05T14:51:14.974Z,96851.88
2024-03-05T14:53:41.643Z,96856.25
2024-03-05T14:56:08.362Z,96854.50
2024-03-05T14:58:35.126Z,96858.44
2024-03-05T15:01:03.154Z,96858.88
2024-03-05T15:03:29.789Z,96856.16
2024-03-05T15:05:56.478Z,96859.97
2024-03-05T15:08:23.073Z,96855.03
2024-03-05T15:10:49.725Z,96862.03
2024-03-05T15:13:16.428Z,96857.69
2024-03-05T15:15:43.065Z,96869.34
2024-03-05T15:18:11.061Z,96864.63
2024-03-05T15:20:37.701Z,96862.34
2024-03-05T15:23:04.763Z,96869.34
2024-03-05T15:25:31.382Z,96880.38
2024-03-05T15:28:02.799Z,96890.97
2024-03-05T15:30:33.382Z,96895.13
2024-03-05T15:33:01.541Z,96894.03
2024-03-05T15:35:30.320Z,96900.25
2024-03-05T15:37:57.921Z,96909.56
2024-03-05T15:40:25.510Z,96910.88
2024-03-05T15:42:53.842Z,96903.31
2024-03-05T15:45:21.929Z,96910.28
2024-03-05T15:47:49.474Z,96912.59
2024-03-05T15:50:18.425Z,96919.81
2024-03-05T15:52:47.785Z,96930.19
2024-03-05T15:55:15.512Z,96931.72
2024-03-05T15:57:42.255Z,96938.91
2024-03-05T16:00:09.622Z,96943.31
2024-03-05T16:02:36.269Z,96954.13
2024-03-05T16:05:17.518Z,96953.91
2024-03-05T16:07:51.001Z,96956.75
2024-03-05T16:10:17.844Z,96973.78
2024-03-05T16:12:44.430Z,96970.41
2024-03-05T16:15:12.083Z,96983.31
2024-03-05T16:17:39.440Z,96982.53
2024-03-05T16:20:07.421Z,96991.69
2024-03-05T16:22:34.253Z,96987.97
2024-03-05T16:25:02.503Z,97001.97
2024-03-05T16:27:29.096Z,97009.53
2024-03-05T16:29:55.734Z,97006.25
2024-03-05T16:32:22.348Z,97006.03
2024-03-05T16:34:49.288Z,97010.19
2024-03-05T16:37:15.880Z,97020.03
2024-03-05T16:39:42.532Z,97019.03
2024-03-05T16:42:10.502Z,97017.28
2024-03-05T16:44:37.140Z,97022.19
2024-03-05T16:47:04.298Z,97028.66
2024-03-05T16:49:30.981Z,97029.41
2024-03-05T16:51:57.590Z,97035.09
2024-03-05T16:54:24.213Z,97049.84
2024-03-05T16:56:50.832Z,97040.75
2024-03-05T16:59:18.829Z,97049.84
2024-03-05T17:01:45.532Z,97050.59
2024-03-05T17:04:12.180Z,97061.22
2024-03-05T17:06:38.787Z,97056.84
2024-03-05T17:09:05.414Z,97069.50
2024-03-05T17:11:32.203Z,97065.38
2024-03-05T17:13:58.940Z,97076.28
2024-03-05T17:16:26.952Z,97076.28
2024-03-05T17:18:53.603Z,97081.84
2024-03-05T17:21:20.454Z,97077.38
2024-03-05T17:23:47.063Z,97086.13
2024-03-05T17:26:13.831Z,97099.88
2024-03-05T17:28:40.555Z,97095.72
2024-03-05T17:31:07.264Z,97103.16
2024-03-05T17:33:35.246Z,97106.31
2024-03-05T17:36:01.867Z,97108.84
2024-03-05T17:38:31.704Z,97104.25
2024-03-05T17:40:59.896Z,97111.47
2024-03-05T17:43:26.688Z,97122.28
2024-03-05T17:45:53.295Z,97115.63
2024-03-05T17:48:19.915Z,97117.16
2024-03-05T17:50:47.995Z,97126.63
2024-03-05T17:53:14.735Z,97133.41
2024-03-05T17:55:41.355Z,97138.78
2024-03-05T17:58:08.060Z,97145.22
2024-03-05T18:00:34.813Z,97133.41
2024-03-05T18:03:01.500Z,97141.94
2024-03-05T18:05:28.170Z,97152.31
2024-03-05T18:07:56.635Z,97145.31
2024-03-05T18:10:23.853Z,97143.25
2024-03-05T18:12:51.807Z,97152.97
2024-03-05T18:15:19.704Z,97152.53
2024-03-05T18:17:46.546Z,97158.44
2024-03-05T18:20:13.769Z,97157.44
2024-03-05T18:22:40.539Z,97158.66
2024-03-05T18:25:09.704Z,97159.31
2024-03-05T18:27:36.293Z,97158.00
2024-03-05T18:30:03.270Z,97156.13
2024-03-05T18:32:29.972Z,97162.59
2024-03-05T18:34:56.723Z,97149.25
2024-03-05T18:37:23.348Z,97156.47
2024-03-05T18:39:49.944Z,97154.94
2024-03-05T18:42:17.907Z,97152.09
2024-03-05T18:44:44.534Z,97153.41
2024-03-05T18:47:11.215Z,97151.53
2024-03-05T18:49:37.889Z,97151.53
2024-03-05T18:52:04.652Z,97162.16
2024-03-05T18:54:31.279Z,97158.00
2024-03-05T18:56:57.902Z,97156.47
2024-03-05T18:59:25.939Z,97141.50
2024-03-05T19:01:52.703Z,97151.22
2024-03-05T19:04:19.348Z,97150.00
2024-03-05T19:06:45.973Z,97158.75
2024-03-05T19:09:12.643Z,97158.22
2024-03-05T19:11:39.424Z,97158.22
2024-03-05T19:14:06.199Z,97152.53
2024-03-05T19:16:34.298Z,97154.59
2024-03-05T19:19:00.911Z,97159.19
2024-03-05T19:21:27.623Z,97156.34
2024-03-05T19:23:54.296Z,97156.13
2024-03-05T19:26:21.000Z,97158.44
2024-03-05T19:28:47.695Z,97156.13
2024-03-05T19:31:14.293Z,97157.13
2024-03-05T19:33:42.277Z,97157.44
2024-03-05T19:36:09.376Z,97160.84
2024-03-05T19:38:36.074Z,97153.28
2024-03-05T19:41:03.789Z,97151.69
2024-03-05T19:43:31.634Z,97147.59
2024-03-05T19:45:58.791Z,97151.75
2024-03-05T19:48:25.395Z,97157.66
2024-03-05T19:50:53.373Z,97159.19
2024-03-05T19:53:20.059Z,97158.44
2024-03-05T19:55:46.804Z,97158.66
2024-03-05T19:58:14.476Z,97154.59
2024-03-05T20:00:41.088Z,97167.72
2024-03-05T20:03:07.710Z,97167.94
2024-03-05T20:05:34.357Z,97166.75
2024-03-05T20:08:02.414Z,97173.41
2024-03-05T20:10:29.059Z,97174.47
2024-03-05T20:12:55.806Z,97171.66
2024-03-05T20:15:22.461Z,97170.91
2024-03-05T20:17:49.291Z,97167.50
2024-03-05T20:20:16.085Z,97165.44
2024-03-05T20:22:42.924Z,97160.84
2024-03-05T20:25:11.161Z,97158.22
2024-03-05T20:27:37.797Z,97157.22
2024-03-05T20:30:04.997Z,97165.97
2024-03-05T20:32:31.704Z,97169.38
2024-03-05T20:34:58.529Z,97162.16
2024-03-05T20:37:25.290Z,97171.56
2024-03-05T20:39:51.944Z,97170.56
2024-03-05T20:42:21.054Z,97166.53
2024-03-05T20:44:47.687Z,97162.91
2024-03-05T20:47:14.420Z,97156.13
2024-03-05T20:49:41.069Z,97159.53
2024-03-05T20:52:07.744Z,97155.38
2024-03-05T20:54:34.462Z,97158.66
2024-03-05T20:57:01.185Z,97162.25
2024-03-05T20:59:29.177Z,97156.91
2024-03-05T21:01:55.912Z,97160.63
2024-03-05T21:04:22.538Z,97158.22
2024-03-05T21:06:49.163Z,97162.91
2024-03-05T21:09:15.795Z,97167.06
2024-03-05T21:11:42.574Z,97164.00
2024-03-05T21:14:09.442Z,97156.25
2024-03-05T21:16:37.645Z,97163.13
2024-03-05T21:19:04.305Z,97155.38
2024-03-05T21:21:30.925Z,97159.75
2024-03-05T21:23:57.532Z,97159.75
2024-03-05T21:26:35.574Z,97155.69
2024-03-05T21:29:10.738Z,97163.91
2024-03-05T21:31:38.774Z,97167.50
2024-03-05T21:34:05.410Z,97169.38
2024-03-05T21:36:32.074Z,97165.75
2024-03-05T21:38:58.859Z,97169.13
2024-03-05T21:41:25.515Z,97175.03
2024-03-05T21:43:52.179Z,97171.41
2024-03-05T21:46:18.836Z,97173.28
2024-03-05T21:48:46.787Z,97173.50
2024-03-05T21:51:16.304Z,97168.91
2024-03-05T21:53:43.470Z,97175.03
2024-03-05T21:56:10.180Z,97180.50
2024-03-05T21:58:36.944Z,97181.47
2024-03-05T22:01:03.862Z,97187.16
2024-03-05T22:03:30.495Z,97185.09
2024-03-05T22:06:05.186Z,97186.41
2024-03-05T22:08:38.607Z,97183.34
2024-03-05T22:11:05.391Z,97185.63
2024-03-05T22:13:32.036Z,97192.84
2024-03-05T22:15:58.621Z,97186.41
2024-03-05T22:18:26.488Z,97186.41
2024-03-05T22:20:53.330Z,97190.56
2024-03-05T22:23:21.725Z,97179.41
2024-03-05T22:25:48.646Z,97186.41
2024-03-05T22:28:15.556Z,97188.78
2024-03-05T22:30:42.213Z,97182.88
2024-03-05T22:33:08.999Z,97189.03
2024-03-05T22:35:35.603Z,97188.69
2024-03-05T22:38:02.262Z,97195.16
2024-03-05T22:40:30.237Z,97189.25
2024-03-05T22:42:56.883Z,97191.88
2024-03-05T22:45:23.485Z,97194.69
2024-03-05T22:47:50.708Z,97201.13
2024-03-05T22:50:17.617Z,97203.44
2024-03-05T22:52:44.359Z,97200.38
2024-03-05T22:55:11.370Z,97201.91
2024-03-05T22:57:39.780Z,97206.59
2024-03-05T23:00:07.689Z,97204.53
2024-03-05T23:02:34.484Z,97207.13
2024-03-05T23:05:01.088Z,97204.28
2024-03-05T23:07:27.706Z,97212.81
2024-03-05T23:09:54.601Z,97195.75
2024-03-05T23:12:21.197Z,97196.81
2024-03-05T23:14:49.753Z,97205.09
2024-03-05T23:17:16.429Z,97206.88
2024-03-05T23:19:43.306Z,97199.44
2024-03-05T23:22:09.944Z,97198.59
2024-03-05T23:24:36.550Z,97195.28
2024-03-05T23:27:03.252Z,97193.97
2024-03-05T23:29:30.012Z,97200.97
2024-03-05T23:31:58.000Z,97199.91
2024-03-05T23:34:24.652Z,97208.44
2024-03-05T23:36:51.287Z,97212.28
2024-03-05T23:39:17.909Z,97213.31
2024-03-05T23:41:44.563Z,97206.88
2024-03-05T23:44:12.709Z,97209.47
2024-03-05T23:46:39.596Z,97201.75
2024-03-05T23:49:07.588Z,97206.63
2024-03-05T23:51:34.283Z,97208.69
2024-03-05T23:54:00.921Z,97203.00
2024-03-05T23:56:27.533Z,97206.88
2024-03-05T23:58:54.163Z,97198.34
